createdAt,value
2022-11-27T00:01:37.582Z,101634.00
2022-11-27T00:04:07.110Z,101628.00
2022-11-27T00:06:37.154Z,101640.00
2022-11-27T00:09:09.471Z,101630.00
2022-11-27T00:11:39.508Z,101622.00
2022-11-27T00:14:08.618Z,101620.00
2022-11-27T00:16:37.250Z,101609.00
2022-11-27T00:19:06.220Z,101618.00
2022-11-27T00:21:36.632Z,101601.00
2022-11-27T00:24:08.533Z,101612.00
2022-11-27T00:26:38.439Z,101612.00
2022-11-27T00:29:07.855Z,101615.00
2022-11-27T00:31:37.889Z,101615.00
2022-11-27T00:34:09.280Z,101620.00
2022-11-27T00:36:38.505Z,101615.00
2022-11-27T00:39:08.973Z,101614.00
2022-11-27T00:41:37.866Z,101615.00
2022-11-27T00:44:06.967Z,101616.00
2022-11-27T00:46:36.872Z,101605.00
2022-11-27T00:49:08.090Z,101592.00
2022-11-27T00:51:37.316Z,101617.00
2022-11-27T00:54:08.815Z,101618.00
2022-11-27T00:56:44.887Z,101601.00
2022-11-27T00:59:25.311Z,101604.00
2022-11-27T01:02:05.232Z,101603.00
2022-11-27T01:04:42.012Z,101614.00
2022-11-27T01:07:17.109Z,101601.00
2022-11-27T01:10:00.608Z,101595.00
2022-11-27T01:12:34.519Z,101596.00
2022-11-27T01:15:06.342Z,101594.00
2022-11-27T01:17:43.692Z,101590.00
2022-11-27T01:20:15.960Z,101589.00
2022-11-27T01:22:57.719Z,101574.00
2022-11-27T01:25:32.377Z,101562.00
2022-11-27T01:28:13.011Z,101564.00
2022-11-27T01:30:48.288Z,101563.00
2022-11-27T01:33:23.358Z,101552.00
2022-11-27T01:36:09.900Z,101563.00
2022-11-27T01:38:41.086Z,101557.00
2022-11-27T01:41:26.635Z,101552.00
2022-11-27T01:44:02.686Z,101556.00
2022-11-27T01:46:44.169Z,101547.00
2022-11-27T01:49:27.999Z,101546.00
2022-11-27T01:52:04.104Z,101534.00
2022-11-27T01:54:39.188Z,101534.00
2022-11-27T01:57:26.812Z,101531.00
2022-11-27T02:00:02.702Z,101511.00
2022-11-27T02:02:39.590Z,101514.00
2022-11-27T02:05:17.896Z,101523.00
2022-11-27T02:07:58.774Z,101516.00
2022-11-27T02:10:43.787Z,101513.00
2022-11-27T02:13:21.283Z,101510.00
2022-11-27T02:16:19.426Z,101508.00
2022-11-27T02:19:04.062Z,101506.00
2022-11-27T02:21:45.047Z,101521.00
2022-11-27T02:24:45.206Z,101516.00
2022-11-27T02:27:44.719Z,101516.00
2022-11-27T02:30:21.335Z,101517.00
2022-11-27T02:32:56.711Z,101515.00
2022-11-27T02:35:33.791Z,101512.00
2022-11-27T02:38:08.465Z,101504.00
2022-11-27T02:40:42.103Z,101519.00
2022-11-27T02:43:13.915Z,101516.00
2022-11-27T02:45:57.265Z,101515.00
2022-11-27T02:48:35.002Z,101519.00
2022-11-27T02:51:11.337Z,101508.00
2022-11-27T02:53:44.515Z,101517.00
2022-11-27T02:56:17.871Z,101516.00
2022-11-27T02:58:49.385Z,101515.00
2022-11-27T03:01:22.463Z,101528.00
2022-11-27T03:03:54.422Z,101529.00
2022-11-27T03:06:31.448Z,101522.00
2022-11-27T03:09:06.679Z,101515.00
2022-11-27T03:11:35.628Z,101524.00
2022-11-27T03:14:09.309Z,101525.00
2022-11-27T03:16:49.507Z,101528.00
2022-11-27T03:19:21.990Z,101522.00
2022-11-27T03:21:54.015Z,101522.00
2022-11-27T03:24:24.913Z,101518.00
2022-11-27T03:26:54.371Z,101521.00
2022-11-27T03:29:26.949Z,101526.00
2022-11-27T03:31:58.142Z,101523.00
2022-11-27T03:34:31.753Z,101516.00
2022-11-27T03:37:12.241Z,101515.00
2022-11-27T03:39:42.923Z,101517.00
2022-11-27T03:42:21.166Z,101505.00
2022-11-27T03:45:02.789Z,101494.00
2022-11-27T03:47:49.333Z,101496.00
2022-11-27T03:50:26.185Z,101497.00
2022-11-27T03:53:08.245Z,101490.00
2022-11-27T03:55:51.075Z,101485.00
2022-11-27T03:58:32.873Z,101484.00
2022-11-27T04:01:07.400Z,101483.00
2022-11-27T04:03:38.070Z,101479.00
2022-11-27T04:06:07.738Z,101486.00
2022-11-27T04:08:52.882Z,101477.00
2022-11-27T04:11:24.772Z,101492.00
2022-11-27T04:13:53.587Z,101479.00
2022-11-27T04:16:22.573Z,101491.00
2022-11-27T04:18:55.922Z,101480.00
2022-11-27T04:21:24.814Z,101484.00
2022-11-27T04:23:53.773Z,101486.00
2022-11-27T04:26:23.618Z,101482.00
2022-11-27T04:28:52.323Z,101494.00
2022-11-27T04:31:21.023Z,101483.00
2022-11-27T04:33:51.026Z,101494.00
2022-11-27T04:36:19.681Z,101493.00
2022-11-27T04:38:48.449Z,101489.00
2022-11-27T04:41:17.246Z,101488.00
2022-11-27T04:43:45.868Z,101492.00
2022-11-27T04:46:14.750Z,101497.00
2022-11-27T04:48:43.449Z,101488.00
2022-11-27T04:51:13.583Z,101493.00
2022-11-27T04:53:42.310Z,101489.00
2022-11-27T04:56:11.013Z,101477.00
2022-11-27T04:58:39.649Z,101484.00
2022-11-27T05:01:10.119Z,101484.00
2022-11-27T05:03:38.957Z,101476.00
2022-11-27T05:06:07.866Z,101470.00
2022-11-27T05:08:38.006Z,101477.00
2022-11-27T05:11:09.555Z,101477.00
2022-11-27T05:13:38.471Z,101484.00
2022-11-27T05:16:08.477Z,101479.00
2022-11-27T05:18:37.569Z,101490.00
2022-11-27T05:21:08.212Z,101491.00
2022-11-27T05:23:38.698Z,101494.00
2022-11-27T05:26:07.594Z,101493.00
2022-11-27T05:28:36.376Z,101489.00
2022-11-27T05:31:05.199Z,101500.00
2022-11-27T05:33:33.890Z,101500.00
2022-11-27T05:36:02.537Z,101496.00
2022-11-27T05:38:31.415Z,101497.00
2022-11-27T05:41:01.683Z,101504.00
2022-11-27T05:43:30.470Z,101497.00
2022-11-27T05:45:59.465Z,101505.00
2022-11-27T05:48:28.194Z,101498.00
2022-11-27T05:50:57.345Z,101499.00
2022-11-27T05:53:26.125Z,101493.00
2022-11-27T05:55:55.026Z,101492.00
2022-11-27T05:58:25.249Z,101495.00
2022-11-27T06:00:54.509Z,101494.00
2022-11-27T06:03:23.334Z,101488.00
2022-11-27T06:05:52.151Z,101486.00
2022-11-27T06:08:20.857Z,101468.00
2022-11-27T06:10:50.166Z,101474.00
2022-11-27T06:13:19.113Z,101463.00
2022-11-27T06:15:49.398Z,101462.00
2022-11-27T06:18:18.301Z,101462.00
2022-11-27T06:20:52.737Z,101467.00
2022-11-27T06:23:22.570Z,101461.00
2022-11-27T06:25:51.399Z,101458.00
2022-11-27T06:28:20.313Z,101465.00
2022-11-27T06:30:50.508Z,101451.00
2022-11-27T06:33:19.117Z,101453.00
2022-11-27T06:35:47.721Z,101454.00
2022-11-27T06:38:16.306Z,101462.00
2022-11-27T06:40:45.065Z,101458.00
2022-11-27T06:43:13.888Z,101442.00
2022-11-27T06:45:42.566Z,101435.00
2022-11-27T06:48:12.885Z,101434.00
2022-11-27T06:50:41.672Z,101442.00
2022-11-27T06:53:10.345Z,101445.00
2022-11-27T06:55:39.987Z,101450.00
2022-11-27T06:58:08.595Z,101452.00
2022-11-27T07:00:37.415Z,101457.00
2022-11-27T07:03:06.051Z,101460.00
2022-11-27T07:05:36.864Z,101466.00
2022-11-27T07:08:06.016Z,101461.00
2022-11-27T07:10:36.063Z,101458.00
2022-11-27T07:13:04.751Z,101469.00
2022-11-27T07:15:34.699Z,101455.00
2022-11-27T07:18:03.435Z,101469.00
2022-11-27T07:20:32.047Z,101469.00
2022-11-27T07:23:02.042Z,101464.00
2022-11-27T07:25:30.820Z,101461.00
2022-11-27T07:27:59.417Z,101460.00
2022-11-27T07:30:28.233Z,101461.00
2022-11-27T07:32:57.110Z,101465.00
2022-11-27T07:35:25.908Z,101460.00
2022-11-27T07:37:54.557Z,101455.00
2022-11-27T07:40:24.721Z,101444.00
2022-11-27T07:42:53.376Z,101440.00
2022-11-27T07:45:22.041Z,101428.00
2022-11-27T07:47:50.655Z,101434.00
2022-11-27T07:50:19.266Z,101446.00
2022-11-27T07:52:48.051Z,101432.00
2022-11-27T07:55:16.702Z,101431.00
2022-11-27T07:57:46.748Z,101432.00
2022-11-27T08:00:16.317Z,101436.00
2022-11-27T08:02:45.064Z,101423.00
2022-11-27T08:05:13.863Z,101428.00
2022-11-27T08:07:42.559Z,101412.00
2022-11-27T08:10:11.476Z,101415.00
2022-11-27T08:12:40.210Z,101410.00
2022-11-27T08:15:11.908Z,101413.00
2022-11-27T08:17:41.269Z,101407.00
2022-11-27T08:20:10.218Z,101401.00
2022-11-27T08:22:39.098Z,101405.00
2022-11-27T08:25:08.546Z,101410.00
2022-11-27T08:27:37.323Z,101410.00
2022-11-27T08:30:07.202Z,101416.00
2022-11-27T08:32:40.334Z,101413.00
2022-11-27T08:35:09.182Z,101419.00
2022-11-27T08:37:38.137Z,101428.00
2022-11-27T08:40:08.710Z,101424.00
2022-11-27T08:42:38.053Z,101418.00
2022-11-27T08:45:08.554Z,101422.00
2022-11-27T08:47:40.033Z,101418.00
2022-11-27T08:50:11.419Z,101417.00
2022-11-27T08:52:41.433Z,101425.00
2022-11-27T08:55:10.749Z,101415.00
2022-11-27T08:57:39.346Z,101430.00
2022-11-27T09:00:09.261Z,101417.00
2022-11-27T09:02:39.290Z,101409.00
2022-11-27T09:05:08.599Z,101410.00
2022-11-27T09:07:37.301Z,101418.00
2022-11-27T09:10:06.988Z,101415.00
2022-11-27T09:12:38.204Z,101399.00
2022-11-27T09:15:11.448Z,101399.00
2022-11-27T09:17:41.456Z,101397.00
2022-11-27T09:20:11.095Z,101397.00
2022-11-27T09:22:39.676Z,101383.00
2022-11-27T09:25:09.657Z,101385.00
2022-11-27T09:27:39.112Z,101386.00
2022-11-27T09:30:09.778Z,101379.00
2022-11-27T09:32:38.427Z,101375.00
2022-11-27T09:35:09.224Z,101364.00
2022-11-27T09:37:38.103Z,101364.00
2022-11-27T09:40:08.138Z,101361.00
2022-11-27T09:42:41.757Z,101367.00
2022-11-27T09:45:16.276Z,101358.00
2022-11-27T09:47:49.988Z,101352.00
2022-11-27T09:50:24.848Z,101357.00
2022-11-27T09:52:57.719Z,101347.00
2022-11-27T09:55:32.676Z,101334.00
2022-11-27T09:58:06.767Z,101338.00
2022-11-27T10:00:35.693Z,101335.00
2022-11-27T10:03:04.479Z,101324.00
2022-11-27T10:05:43.319Z,101328.00
2022-11-27T10:08:27.550Z,101329.00
2022-11-27T10:11:11.819Z,101318.00
2022-11-27T10:13:58.233Z,101313.00
2022-11-27T10:16:33.508Z,101325.00
2022-11-27T10:19:09.808Z,101312.00
2022-11-27T10:21:45.704Z,101315.00
2022-11-27T10:24:21.543Z,101316.00
2022-11-27T10:26:53.902Z,101316.00
2022-11-27T10:29:34.644Z,101320.00
2022-11-27T10:32:07.614Z,101307.00
2022-11-27T10:34:41.626Z,101310.00
2022-11-27T10:37:18.714Z,101313.00
2022-11-27T10:39:50.804Z,101306.00
2022-11-27T10:42:26.110Z,101301.00
2022-11-27T10:45:00.710Z,101306.00
2022-11-27T10:47:33.689Z,101308.00
2022-11-27T10:50:03.240Z,101297.00
2022-11-27T10:52:34.534Z,101297.00
2022-11-27T10:55:11.465Z,101286.00
2022-11-27T10:57:59.814Z,101280.00
2022-11-27T11:00:28.858Z,101285.00
2022-11-27T11:03:05.218Z,101286.00
2022-11-27T11:05:51.028Z,101283.00
2022-11-27T11:08:26.480Z,101285.00
2022-11-27T11:11:00.834Z,101271.00
2022-11-27T11:13:30.417Z,101268.00
2022-11-27T11:16:01.898Z,101271.00
2022-11-27T11:18:32.492Z,101276.00
2022-11-27T11:21:03.157Z,101277.00
2022-11-27T11:23:35.850Z,101285.00
2022-11-27T11:26:14.516Z,101270.00
2022-11-27T11:28:50.951Z,101281.00
2022-11-27T11:31:22.995Z,101287.00
2022-11-27T11:33:55.225Z,101288.00
2022-11-27T11:36:24.034Z,101286.00
2022-11-27T11:38:54.746Z,101279.00
2022-11-27T11:41:24.279Z,101279.00
2022-11-27T11:43:58.363Z,101280.00
2022-11-27T11:46:29.851Z,101280.00
2022-11-27T11:49:01.839Z,101272.00
2022-11-27T11:51:56.415Z,101265.00
2022-11-27T11:54:44.694Z,101255.00
2022-11-27T11:57:36.022Z,101255.00
2022-11-27T12:00:10.847Z,101252.00
2022-11-27T12:02:56.527Z,101241.00
2022-11-27T12:05:33.012Z,101246.00
2022-11-27T12:08:23.369Z,101251.00
2022-11-27T12:11:03.643Z,101236.00
2022-11-27T12:13:46.749Z,101231.00
2022-11-27T12:16:24.933Z,101234.00
2022-11-27T12:19:12.061Z,101233.00
2022-11-27T12:21:50.245Z,101217.00
2022-11-27T12:24:32.341Z,101214.00
2022-11-27T12:27:16.148Z,101218.00
2022-11-27T12:30:06.487Z,101210.00
2022-11-27T12:32:59.525Z,101199.00
2022-11-27T12:35:34.656Z,101197.00
2022-11-27T12:38:25.327Z,101190.00
2022-11-27T12:41:08.028Z,101185.00
2022-11-27T12:43:43.682Z,101185.00
2022-11-27T12:46:17.222Z,101186.00
2022-11-27T12:48:51.037Z,101193.00
2022-11-27T12:51:25.403Z,101189.00
2022-11-27T12:54:16.262Z,101186.00
2022-11-27T12:56:52.257Z,101174.00
2022-11-27T12:59:37.441Z,101170.00
2022-11-27T13:02:53.689Z,101151.00
2022-11-27T13:05:36.082Z,101148.00
2022-11-27T13:08:26.692Z,101143.00
2022-11-27T13:11:15.265Z,101141.00
2022-11-27T13:13:53.395Z,101134.00
2022-11-27T13:16:27.866Z,101137.00
2022-11-27T13:19:19.059Z,101123.00
2022-11-27T13:21:56.542Z,101118.00
2022-11-27T13:24:41.383Z,101120.00
2022-11-27T13:27:20.184Z,101100.00
2022-11-27T13:30:08.599Z,101107.00
2022-11-27T13:33:03.562Z,101100.00
2022-11-27T13:35:53.143Z,101095.00
2022-11-27T13:38:29.892Z,101089.00
2022-11-27T13:48:12.932Z,101090.00
2022-11-27T13:51:27.823Z,101084.00
2022-11-27T13:54:27.628Z,101081.00
2022-11-27T13:58:02.853Z,101082.00
2022-11-27T14:00:49.111Z,101092.00
2022-11-27T14:03:40.111Z,101102.00
2022-11-27T14:06:35.065Z,101092.00
2022-11-27T14:09:07.308Z,101094.00
2022-11-27T14:11:40.337Z,101101.00
2022-11-27T14:14:19.642Z,101091.00
2022-11-27T14:16:59.512Z,101082.00
2022-11-27T14:19:35.089Z,101080.00
2022-11-27T14:22:15.004Z,101083.00
2022-11-27T14:24:46.684Z,101077.00
2022-11-27T14:27:21.416Z,101066.00
2022-11-27T14:29:50.962Z,101068.00
2022-11-27T14:32:21.377Z,101069.00
2022-11-27T14:34:50.620Z,101065.00
2022-11-27T14:37:24.970Z,101060.00
2022-11-27T14:39:55.611Z,101053.00
2022-11-27T14:42:29.103Z,101049.00
2022-11-27T14:45:06.893Z,101053.00
2022-11-27T14:47:36.551Z,101040.00
2022-11-27T14:50:07.398Z,101051.00
2022-11-27T14:52:36.193Z,101047.00
2022-11-27T14:55:09.575Z,101044.00
2022-11-27T14:57:38.250Z,101033.00
2022-11-27T15:00:18.429Z,101045.00
2022-11-27T15:02:47.685Z,101035.00
2022-11-27T15:05:21.956Z,101027.00
2022-11-27T15:07:53.778Z,101026.00
2022-11-27T15:10:33.351Z,101032.00
2022-11-27T15:13:03.852Z,101033.00
2022-11-27T15:15:37.960Z,101026.00
2022-11-27T15:18:09.510Z,101019.00
2022-11-27T15:20:42.296Z,101014.00
2022-11-27T15:23:18.690Z,101008.00
2022-11-27T15:25:51.313Z,101013.00
2022-11-27T15:28:34.990Z,101025.00
2022-11-27T15:31:05.370Z,101003.00
2022-11-27T15:33:35.166Z,101012.00
2022-11-27T15:36:22.466Z,101008.00
2022-11-27T15:38:54.085Z,101009.00
2022-11-27T15:41:28.905Z,101004.00
2022-11-27T15:43:57.816Z,101003.00
2022-11-27T15:46:31.173Z,100992.00
2022-11-27T15:49:00.467Z,100992.00
2022-11-27T15:51:30.197Z,100987.00
2022-11-27T15:53:58.868Z,100985.00
2022-11-27T15:56:28.980Z,100985.00
2022-11-27T15:58:57.677Z,100969.00
2022-11-27T16:01:26.355Z,100983.00
2022-11-27T16:03:55.786Z,100972.00
2022-11-27T16:06:24.778Z,100978.00
2022-11-27T16:08:56.210Z,100980.00
2022-11-27T16:11:25.894Z,100975.00
2022-11-27T16:13:55.936Z,100973.00
2022-11-27T16:16:25.597Z,100970.00
2022-11-27T16:18:57.038Z,100966.00
2022-11-27T16:21:29.641Z,100974.00
2022-11-27T16:24:00.172Z,100972.00
2022-11-27T16:26:30.008Z,100978.00
2022-11-27T16:29:00.297Z,100968.00
2022-11-27T16:31:29.462Z,100975.00
2022-11-27T16:33:58.189Z,100977.00
2022-11-27T16:36:26.813Z,100979.00
2022-11-27T16:38:56.117Z,100978.00
2022-11-27T16:41:25.351Z,100969.00
2022-11-27T16:43:55.839Z,100975.00
2022-11-27T16:46:27.538Z,100985.00
2022-11-27T16:48:57.050Z,100975.00
2022-11-27T16:51:28.360Z,100959.00
2022-11-27T16:53:59.049Z,100965.00
2022-11-27T16:56:29.977Z,100960.00
2022-11-27T16:59:03.054Z,100948.00
2022-11-27T17:01:36.071Z,100949.00
2022-11-27T17:04:08.811Z,100954.00
2022-11-27T17:06:39.180Z,100949.00
2022-11-27T17:09:09.104Z,100945.00
2022-11-27T17:11:41.803Z,100934.00
2022-11-27T17:14:11.582Z,100933.00
2022-11-27T17:16:43.126Z,100926.00
2022-11-27T17:19:14.154Z,100925.00
2022-11-27T17:21:43.168Z,100916.00
2022-11-27T17:24:15.449Z,100914.00
2022-11-27T17:26:45.995Z,100916.00
2022-11-27T17:29:15.950Z,100923.00
2022-11-27T17:31:46.096Z,100927.00
2022-11-27T17:34:16.735Z,100918.00
2022-11-27T17:36:46.136Z,100910.00
2022-11-27T17:39:16.113Z,100917.00
2022-11-27T17:41:45.717Z,100903.00
2022-11-27T17:44:14.947Z,100903.00
2022-11-27T17:46:49.926Z,100892.00
2022-11-27T17:49:19.400Z,100899.00
2022-11-27T17:51:48.043Z,100882.00
2022-11-27T17:54:16.639Z,100883.00
2022-11-27T17:56:51.087Z,100879.00
2022-11-27T17:59:19.782Z,100872.00
2022-11-27T18:01:53.294Z,100868.00
2022-11-27T18:04:22.142Z,100863.00
2022-11-27T18:06:50.907Z,100864.00
2022-11-27T18:09:19.840Z,100854.00
2022-11-27T18:11:48.530Z,100838.00
2022-11-27T18:14:17.481Z,100838.00
2022-11-27T18:16:46.190Z,100844.00
2022-11-27T18:19:16.476Z,100834.00
2022-11-27T18:21:45.099Z,100829.00
2022-11-27T18:24:29.198Z,100819.00
2022-11-27T18:27:13.278Z,100807.00
2022-11-27T18:29:44.643Z,100810.00
2022-11-27T18:32:15.383Z,100815.00
2022-11-27T18:34:45.866Z,100810.00
2022-11-27T18:37:14.938Z,100807.00
2022-11-27T18:39:45.432Z,100801.00
2022-11-27T18:42:14.504Z,100800.00
2022-11-27T18:44:45.108Z,100808.00
2022-11-27T18:47:14.658Z,100805.00
2022-11-27T18:49:45.185Z,100805.00
2022-11-27T18:52:13.985Z,100807.00
2022-11-27T18:54:42.675Z,100803.00
2022-11-27T18:57:11.518Z,100805.00
2022-11-27T18:59:41.008Z,100806.00
2022-11-27T19:02:10.984Z,100814.00
2022-11-27T19:04:40.070Z,100810.00
2022-11-27T19:07:10.337Z,100813.00
2022-11-27T19:09:39.568Z,100816.00
2022-11-27T19:12:08.505Z,100814.00
2022-11-27T19:14:37.266Z,100810.00
2022-11-27T19:17:05.941Z,100815.00
2022-11-27T19:22:25.753Z,100813.00
2022-11-27T19:24:54.396Z,100806.00
2022-11-27T19:27:23.071Z,100808.00
2022-11-27T19:29:51.730Z,100812.00
2022-11-27T19:32:20.418Z,100817.00
2022-11-27T19:34:51.407Z,100818.00
2022-11-27T19:37:33.600Z,100813.00
2022-11-27T19:40:06.537Z,100804.00
2022-11-27T19:42:35.469Z,100815.00
2022-11-27T19:45:04.441Z,100801.00
2022-11-27T19:47:33.112Z,100805.00
2022-11-27T19:50:01.869Z,100789.00
2022-11-27T19:52:30.525Z,100788.00
2022-11-27T19:54:59.180Z,100775.00
2022-11-27T19:57:29.583Z,100773.00
2022-11-27T19:59:58.406Z,100778.00
2022-11-27T20:02:27.366Z,100771.00
2022-11-27T20:04:56.084Z,100775.00
2022-11-27T20:07:24.865Z,100761.00
2022-11-27T20:09:53.667Z,100768.00
2022-11-27T20:12:22.366Z,100771.00
2022-11-27T20:14:52.380Z,100761.00
2022-11-27T20:17:21.062Z,100768.00
2022-11-27T20:19:49.690Z,100761.00
2022-11-27T20:22:18.626Z,100759.00
2022-11-27T20:25:11.179Z,100747.00
2022-11-27T20:27:36.058Z,100748.00
2022-11-27T20:30:07.164Z,100752.00
2022-11-27T20:32:35.837Z,100754.00
2022-11-27T20:35:04.611Z,100751.00
2022-11-27T20:37:34.041Z,100747.00
2022-11-27T20:40:02.772Z,100749.00
2022-11-27T20:42:31.440Z,100745.00
2022-11-27T20:45:04.706Z,100730.00
2022-11-27T20:47:35.755Z,100734.00
2022-11-27T20:50:04.599Z,100737.00
2022-11-27T20:52:33.272Z,100737.00
2022-11-27T20:55:01.960Z,100736.00
2022-11-27T20:57:30.641Z,100724.00
2022-11-27T20:59:59.271Z,100722.00
2022-11-27T21:02:28.254Z,100720.00
2022-11-27T21:04:58.429Z,100721.00
2022-11-27T21:07:27.194Z,100718.00
2022-11-27T21:09:56.374Z,100723.00
2022-11-27T21:12:25.034Z,100719.00
2022-11-27T21:14:53.714Z,100720.00
2022-11-27T21:17:22.390Z,100720.00
2022-11-27T21:19:51.057Z,100710.00
2022-11-27T21:22:21.378Z,100706.00
2022-11-27T21:24:51.881Z,100716.00
2022-11-27T21:27:20.568Z,100692.00
2022-11-27T21:29:49.245Z,100703.00
2022-11-27T21:32:18.288Z,100706.00
2022-11-27T21:34:47.174Z,100679.00
2022-11-27T21:37:16.231Z,100678.00
2022-11-27T21:39:46.299Z,100667.00
2022-11-27T21:42:14.924Z,100669.00
2022-11-27T21:44:43.728Z,100677.00
2022-11-27T21:47:12.694Z,100673.00
2022-11-27T21:49:41.769Z,100673.00
2022-11-27T21:52:10.477Z,100661.00
2022-11-27T21:54:39.437Z,100664.00
2022-11-27T21:57:09.601Z,100665.00
2022-11-27T21:59:38.344Z,100654.00
2022-11-27T22:02:07.565Z,100651.00
2022-11-27T22:04:36.364Z,100643.00
2022-11-27T22:07:05.061Z,100639.00
2022-11-27T22:09:34.387Z,100645.00
2022-11-27T22:12:03.090Z,100639.00
2022-11-27T22:14:33.666Z,100649.00
2022-11-27T22:17:02.437Z,100643.00
2022-11-27T22:19:31.087Z,100622.00
2022-11-27T22:21:59.785Z,100628.00
2022-11-27T22:24:28.468Z,100631.00
2022-11-27T22:26:57.090Z,100619.00
2022-11-27T22:29:25.979Z,100612.00
2022-11-27T22:31:56.222Z,100619.00
2022-11-27T22:34:24.860Z,100614.00
2022-11-27T22:36:56.143Z,100604.00
2022-11-27T22:39:24.816Z,100607.00
2022-11-27T22:41:53.448Z,100610.00
2022-11-27T22:44:22.175Z,100598.00
2022-11-27T22:46:50.935Z,100604.00
2022-11-27T22:49:21.093Z,100610.00
2022-11-27T22:51:49.754Z,100602.00
2022-11-27T22:54:18.850Z,100604.00
2022-11-27T22:56:47.992Z,100590.00
2022-11-27T22:59:34.119Z,100596.00
2022-11-27T23:02:03.637Z,100589.00
2022-11-27T23:04:34.186Z,100593.00
2022-11-27T23:07:02.864Z,100592.00
2022-11-27T23:09:31.719Z,100598.00
2022-11-27T23:12:00.816Z,100592.00
2022-11-27T23:14:29.491Z,100572.00
2022-11-27T23:16:58.387Z,100581.00
2022-11-27T23:19:27.134Z,100578.00
2022-11-27T23:21:57.254Z,100572.00
2022-11-27T23:24:25.943Z,100571.00
2022-11-27T23:26:54.613Z,100566.00
2022-11-27T23:29:23.280Z,100574.00
2022-11-27T23:31:55.262Z,100568.00
2022-11-27T23:34:24.067Z,100577.00
2022-11-27T23:36:52.844Z,100572.00
2022-11-27T23:39:22.878Z,100573.00
2022-11-27T23:41:51.536Z,100573.00
2022-11-27T23:44:20.870Z,100558.00
2022-11-27T23:46:49.540Z,100566.00
2022-11-27T23:49:18.742Z,100568.00
2022-11-27T23:51:48.116Z,100558.00
2022-11-27T23:54:17.911Z,100561.00
2022-11-27T23:56:51.610Z,100554.00
2022-11-27T23:59:20.432Z,100552.00
